Time;durP1;ratioP1;P1;durP2;ratioP2;P2;SDS_P1;SDS_P2;PMS_P1;PMS_P2;Temp;Humidity;BMP_temperature;BMP_pressure;BME280_temperature;BME280_humidity;BME280_pressure;Samples;Min_cycle;Max_cycle;Signal;HPM_P1;HPM_P2
2022/07/01 00:02:02;;;;;;;27.93;26.53;;;15.50;99.90;;;;;;4972933;28;20929;-72
2022/07/01 00:04:29;;;;;;;28.30;26.73;;;15.50;99.90;;;;;;4972771;28;20455;-72
2022/07/01 00:06:56;;;;;;;27.80;26.60;;;15.50;99.90;;;;;;4972548;28;20546;-72
2022/07/01 00:09:24;;;;;;;27.00;25.60;;;15.50;99.90;;;;;;4973060;28;20506;-72
2022/07/01 00:11:51;;;;;;;26.83;25.63;;;15.50;99.90;;;;;;4972959;28;20455;-72
2022/07/01 00:14:19;;;;;;;27.03;25.43;;;15.50;99.90;;;;;;4972695;28;20542;-72
2022/07/01 00:16:45;;;;;;;26.20;24.90;;;15.50;99.90;;;;;;4972659;28;20946;-72
2022/07/01 00:19:12;;;;;;;27.37;26.13;;;15.50;99.90;;;;;;4972514;28;20464;-72
2022/07/01 00:21:39;;;;;;;27.20;25.83;;;15.50;99.90;;;;;;4972479;28;20483;-72
2022/07/01 00:24:06;;;;;;;26.80;25.60;;;15.50;99.90;;;;;;4972539;28;20514;-72
2022/07/01 00:26:33;;;;;;;26.27;25.07;;;15.50;99.90;;;;;;4972832;28;20582;-73
2022/07/01 00:29:00;;;;;;;27.40;26.00;;;15.50;99.90;;;;;;4972480;28;20455;-72
2022/07/01 00:31:28;;;;;;;26.90;25.60;;;15.50;99.90;;;;;;4972615;28;20719;-72
2022/07/01 00:33:55;;;;;;;27.23;25.90;;;15.50;99.90;;;;;;4972177;28;20464;-71
2022/07/01 00:36:21;;;;;;;27.40;26.10;;;15.60;99.90;;;;;;4972612;28;20501;-73
2022/07/01 00:38:48;;;;;;;28.50;27.20;;;15.60;99.90;;;;;;4972577;28;20559;-74
2022/07/01 00:41:16;;;;;;;28.90;27.40;;;15.60;99.90;;;;;;4971599;28;20491;-73
2022/07/01 00:43:42;;;;;;;29.63;28.13;;;15.50;99.90;;;;;;4971336;28;20459;-72
2022/07/01 00:46:09;;;;;;;30.20;28.60;;;15.50;99.90;;;;;;4971553;28;20448;-72
2022/07/01 00:48:37;;;;;;;29.60;28.30;;;15.40;99.90;;;;;;4974955;28;20488;-73
2022/07/01 00:51:04;;;;;;;30.07;28.50;;;15.30;99.90;;;;;;4978903;28;21029;-74
2022/07/01 00:53:32;;;;;;;29.60;28.10;;;15.40;99.90;;;;;;4980760;28;20774;-74
2022/07/01 00:55:58;;;;;;;29.70;28.10;;;15.30;99.90;;;;;;4983869;28;20451;-73
2022/07/01 00:58:27;;;;;;;28.90;27.70;;;15.40;99.90;;;;;;4982358;28;20444;-72
2022/07/01 01:00:54;;;;;;;30.20;28.80;;;15.30;99.90;;;;;;4983332;28;20450;-73
2022/07/01 01:03:21;;;;;;;30.17;28.77;;;15.10;99.90;;;;;;4984007;28;20459;-73
2022/07/01 01:05:50;;;;;;;30.37;28.87;;;15.00;99.90;;;;;;4982078;28;20522;-73
2022/07/01 01:08:17;;;;;;;29.83;28.20;;;14.90;99.90;;;;;;4982963;28;20992;-72
2022/07/01 01:10:44;;;;;;;29.57;28.27;;;14.90;99.90;;;;;;4984155;28;20504;-73
2022/07/01 01:13:12;;;;;;;29.63;28.33;;;14.90;99.90;;;;;;4982295;28;20447;-73
2022/07/01 01:15:39;;;;;;;29.10;27.90;;;14.90;99.90;;;;;;4982562;28;20533;-73
2022/07/01 01:18:07;;;;;;;28.43;27.13;;;15.00;99.90;;;;;;4983906;28;20996;-72
2022/07/01 01:20:36;;;;;;;29.20;27.80;;;15.00;99.90;;;;;;4982726;28;20502;-73
2022/07/01 01:23:04;;;;;;;29.27;27.70;;;15.10;99.90;;;;;;4982145;28;20512;-73
2022/07/01 01:25:31;;;;;;;30.80;29.20;;;15.20;99.90;;;;;;4982169;28;20458;-72
2022/07/01 01:27:58;;;;;;;30.03;28.73;;;15.20;99.90;;;;;;4982542;28;20892;-73
2022/07/01 01:30:24;;;;;;;29.50;28.10;;;15.10;99.90;;;;;;4983648;28;20509;-70
2022/07/01 01:32:52;;;;;;;29.67;28.37;;;15.10;99.90;;;;;;4982438;28;20451;-71
2022/07/01 01:35:19;;;;;;;29.30;28.00;;;15.10;99.90;;;;;;4982339;28;20541;-72
2022/07/01 01:37:47;;;;;;;29.97;28.57;;;15.10;99.90;;;;;;4983685;28;20438;-71
2022/07/01 01:40:14;;;;;;;30.23;28.73;;;15.10;99.90;;;;;;4946744;28;1043341;-71
2022/07/01 01:42:41;;;;;;;30.17;28.37;;;15.10;99.90;;;;;;4983203;28;20822;-71
2022/07/01 01:45:09;;;;;;;30.53;28.83;;;15.10;99.90;;;;;;4984847;28;20457;-71
2022/07/01 01:47:35;;;;;;;30.30;28.80;;;15.10;99.90;;;;;;4983412;28;20549;-71
2022/07/01 01:50:02;;;;;;;29.50;28.10;;;15.00;99.90;;;;;;4994782;28;20842;-72
2022/07/01 01:52:29;;;;;;;30.03;28.43;;;14.90;99.90;;;;;;4994619;28;20455;-71
2022/07/01 01:54:57;;;;;;;28.50;27.20;;;15.00;99.90;;;;;;4994739;28;20460;-71
2022/07/01 01:57:23;;;;;;;29.47;27.87;;;15.00;99.90;;;;;;4994601;28;20517;-71
2022/07/01 01:59:50;;;;;;;28.33;26.93;;;15.00;99.90;;;;;;4994372;28;20446;-71
2022/07/01 02:02:17;;;;;;;28.40;27.10;;;15.00;99.90;;;;;;4994769;28;20458;-70
2022/07/01 02:04:44;;;;;;;28.00;26.70;;;15.00;99.90;;;;;;4994242;28;20454;-73
2022/07/01 02:07:11;;;;;;;28.57;27.17;;;14.90;99.90;;;;;;4993687;28;20487;-70
2022/07/01 02:09:38;;;;;;;28.10;26.70;;;14.90;99.90;;;;;;4994673;28;20961;-70
2022/07/01 02:12:06;;;;;;;27.63;26.30;;;14.90;99.90;;;;;;4994495;28;20857;-71
2022/07/01 02:14:33;;;;;;;27.33;26.03;;;14.90;99.90;;;;;;4994200;28;20482;-71
2022/07/01 02:17:00;;;;;;;28.53;27.13;;;15.00;99.90;;;;;;4994298;28;20451;-71
2022/07/01 02:19:26;;;;;;;28.17;26.87;;;15.00;99.90;;;;;;4994214;28;20455;-71
2022/07/01 02:21:53;;;;;;;28.80;27.40;;;14.90;99.90;;;;;;4994064;28;20462;-72
2022/07/01 02:24:20;;;;;;;30.50;28.70;;;14.90;99.90;;;;;;4993968;28;20467;-72
2022/07/01 02:26:46;;;;;;;30.20;28.50;;;15.00;99.90;;;;;;4994102;28;20504;-72
2022/07/01 02:29:14;;;;;;;30.70;29.20;;;15.00;99.90;;;;;;4994043;28;20442;-72
2022/07/01 02:31:41;;;;;;;30.10;28.50;;;14.90;99.90;;;;;;4994069;28;20450;-73
2022/07/01 02:34:08;;;;;;;30.43;28.93;;;14.90;99.90;;;;;;4994218;28;20443;-72
2022/07/01 02:36:34;;;;;;;30.10;28.60;;;14.80;99.90;;;;;;4993762;28;20463;-73
2022/07/01 02:39:01;;;;;;;30.27;28.77;;;14.80;99.90;;;;;;4993823;28;20470;-72
2022/07/01 02:41:28;;;;;;;30.30;28.80;;;14.80;99.90;;;;;;4993627;28;20470;-72
2022/07/01 02:43:54;;;;;;;29.80;28.37;;;14.80;99.90;;;;;;4993960;28;21018;-73
2022/07/01 02:46:23;;;;;;;29.97;28.30;;;14.80;99.90;;;;;;4993918;28;20845;-72
2022/07/01 02:48:49;;;;;;;31.20;29.60;;;14.80;99.90;;;;;;4993774;28;20498;-72
2022/07/01 02:51:16;;;;;;;29.87;28.27;;;14.80;99.90;;;;;;4993348;28;20450;-72
2022/07/01 02:53:43;;;;;;;29.67;28.27;;;14.80;99.90;;;;;;4993671;28;20458;-72
2022/07/01 02:56:09;;;;;;;29.70;28.10;;;14.80;99.90;;;;;;4993425;28;20447;-72
2022/07/01 02:58:36;;;;;;;29.70;28.00;;;14.70;99.90;;;;;;4993622;28;20463;-71
2022/07/01 03:01:02;;;;;;;30.17;28.57;;;14.80;99.90;;;;;;4993557;28;20451;-72
2022/07/01 03:03:30;;;;;;;29.97;28.57;;;14.80;99.90;;;;;;4993603;28;20466;-72
2022/07/01 03:05:58;;;;;;;29.80;28.20;;;14.80;99.90;;;;;;4993315;28;20513;-72
2022/07/01 03:08:24;;;;;;;30.30;28.70;;;14.90;99.90;;;;;;4993055;28;21023;-72
2022/07/01 03:10:51;;;;;;;29.90;28.50;;;14.90;99.90;;;;;;4993063;28;20996;-71
2022/07/01 03:13:19;;;;;;;30.20;28.70;;;15.00;99.90;;;;;;4993498;28;20466;-72
2022/07/01 03:15:45;;;;;;;29.93;28.47;;;15.00;99.90;;;;;;4993124;28;20473;-71
2022/07/01 03:18:12;;;;;;;29.77;28.37;;;14.80;99.90;;;;;;4993097;28;20459;-71
2022/07/01 03:20:40;;;;;;;30.00;28.50;;;14.90;99.90;;;;;;4992706;28;20486;-71
2022/07/01 03:23:07;;;;;;;30.07;28.57;;;14.90;99.90;;;;;;4993010;28;20578;-72
2022/07/01 03:25:35;;;;;;;28.70;27.40;;;15.00;99.90;;;;;;4993347;28;20451;-71
2022/07/01 03:28:03;;;;;;;29.47;28.07;;;15.00;99.90;;;;;;4993017;28;20487;-71
2022/07/01 03:30:30;;;;;;;29.77;27.87;;;14.90;99.90;;;;;;4992947;28;20463;-72
2022/07/01 03:32:57;;;;;;;27.77;26.27;;;15.00;99.90;;;;;;4992686;28;20945;-72
2022/07/01 03:35:36;;;;;;;26.97;25.67;;;15.00;99.90;;;;;;4992806;28;20455;-72
2022/07/01 03:38:04;;;;;;;26.47;25.07;;;15.20;99.90;;;;;;4992718;28;20447;-72
2022/07/01 03:40:32;;;;;;;27.10;25.70;;;15.00;99.90;;;;;;4992611;28;20985;-70
2022/07/01 03:42:58;;;;;;;26.27;24.97;;;14.90;99.90;;;;;;4992719;28;20455;-70
2022/07/01 03:45:25;;;;;;;25.83;24.63;;;15.00;99.90;;;;;;4992683;28;20506;-70
2022/07/01 03:47:52;;;;;;;25.00;23.63;;;15.00;99.90;;;;;;4992326;28;20513;-71
2022/07/01 03:50:21;;;;;;;24.70;23.60;;;15.00;99.90;;;;;;4992464;28;20451;-71
2022/07/01 03:52:48;;;;;;;25.20;23.87;;;15.00;99.90;;;;;;4992914;28;20454;-71
2022/07/01 03:55:16;;;;;;;24.30;23.10;;;14.90;99.90;;;;;;4992522;28;20489;-72
2022/07/01 03:57:43;;;;;;;24.50;23.40;;;15.00;99.90;;;;;;4992581;28;20820;-72
2022/07/01 04:00:11;;;;;;;23.13;22.13;;;15.00;99.90;;;;;;4992369;28;20687;-71
2022/07/01 04:02:37;;;;;;;22.40;21.50;;;15.00;99.90;;;;;;4992038;28;20450;-71
2022/07/01 04:05:04;;;;;;;22.77;21.60;;;14.90;99.90;;;;;;4992463;28;20447;-72
2022/07/01 04:07:31;;;;;;;23.20;22.10;;;14.90;99.90;;;;;;4992205;28;20454;-73
2022/07/01 04:09:58;;;;;;;26.40;25.10;;;14.90;99.90;;;;;;4992162;28;20971;-74
2022/07/01 04:12:26;;;;;;;28.07;26.67;;;15.00;99.90;;;;;;4992142;28;20458;-73
2022/07/01 04:14:52;;;;;;;28.30;26.80;;;15.00;99.90;;;;;;4991783;28;20466;-75
2022/07/01 04:17:19;;;;;;;28.93;27.07;;;14.80;99.90;;;;;;4992142;28;20462;-74
2022/07/01 04:19:46;;;;;;;27.67;26.27;;;14.80;99.90;;;;;;4992159;28;20447;-74
2022/07/01 04:24:57;;;;;;;28.13;26.73;;;14.80;99.90;;;;;;4992013;28;20804;-72
2022/07/01 04:27:24;;;;;;;28.20;26.90;;;14.80;99.90;;;;;;4991882;28;20451;-71
2022/07/01 04:29:52;;;;;;;27.63;26.33;;;14.80;99.90;;;;;;4991572;28;20454;-72
2022/07/01 04:32:18;;;;;;;27.83;26.43;;;14.80;99.90;;;;;;4992183;28;20501;-73
2022/07/01 04:34:45;;;;;;;26.33;25.13;;;14.90;99.90;;;;;;4991778;28;20458;-73
2022/07/01 04:37:12;;;;;;;26.70;25.50;;;14.90;99.90;;;;;;4991804;28;20851;-73
2022/07/01 04:39:38;;;;;;;28.13;26.70;;;14.90;99.90;;;;;;4991744;28;20486;-73
2022/07/01 04:42:04;;;;;;;28.57;27.20;;;14.90;99.90;;;;;;4991618;28;20505;-72
2022/07/01 04:44:32;;;;;;;29.20;27.53;;;14.90;99.90;;;;;;4991995;28;20442;-72
2022/07/01 04:47:01;;;;;;;29.87;28.17;;;14.90;99.90;;;;;;4992408;28;20454;-73
2022/07/01 04:49:29;;;;;;;29.37;27.87;;;14.90;99.90;;;;;;4992117;28;20490;-73
2022/07/01 04:51:56;;;;;;;29.20;27.70;;;14.90;99.90;;;;;;4992466;28;20466;-72
2022/07/01 04:54:23;;;;;;;29.10;27.60;;;14.90;99.90;;;;;;4991249;28;20463;-72
2022/07/01 04:56:51;;;;;;;29.60;28.10;;;14.80;99.90;;;;;;4980899;28;20443;-72
2022/07/01 04:59:18;;;;;;;29.30;27.80;;;14.80;99.90;;;;;;4982103;28;20506;-72
2022/07/01 05:01:48;;;;;;;29.00;27.60;;;14.80;99.90;;;;;;4979907;28;20471;-72
2022/07/01 05:04:17;;;;;;;29.10;27.70;;;14.80;99.90;;;;;;4980228;28;20471;-71
2022/07/01 05:06:43;;;;;;;30.50;29.00;;;14.90;99.90;;;;;;4979659;28;20931;-72
2022/07/01 05:09:10;;;;;;;30.40;28.70;;;14.90;99.90;;;;;;4980531;28;20486;-71
2022/07/01 05:11:38;;;;;;;29.07;27.37;;;14.80;99.90;;;;;;4981295;28;20451;-72
2022/07/01 05:14:06;;;;;;;30.30;28.40;;;14.90;99.90;;;;;;4980406;28;20560;-71
2022/07/01 05:16:33;;;;;;;30.37;28.80;;;14.90;99.90;;;;;;4982369;28;20448;-72
2022/07/01 05:21:56;;;;;;;30.47;28.87;;;14.90;99.90;;;;;;4980011;28;20940;-73
2022/07/01 05:24:23;;;;;;;31.40;29.60;;;14.90;99.90;;;;;;4979885;28;20452;-73
2022/07/01 05:26:50;;;;;;;33.43;31.50;;;14.90;99.90;;;;;;4981157;28;20479;-74
2022/07/01 05:29:17;;;;;;;31.23;29.43;;;14.80;99.90;;;;;;4981675;28;20492;-73
2022/07/01 05:31:44;;;;;;;30.77;29.17;;;14.80;99.90;;;;;;4978685;28;20448;-72
2022/07/01 05:34:11;;;;;;;29.23;27.83;;;14.80;99.90;;;;;;4980184;28;20455;-74
2022/07/01 05:36:37;;;;;;;30.53;28.93;;;14.80;99.90;;;;;;4979472;28;20486;-74
2022/07/01 05:39:05;;;;;;;30.20;28.80;;;14.70;99.90;;;;;;4981516;28;20495;-73
2022/07/01 05:41:32;;;;;;;31.27;29.67;;;14.70;99.90;;;;;;4982080;28;20887;-73
2022/07/01 05:43:59;;;;;;;30.07;28.57;;;14.80;99.90;;;;;;4985955;28;20455;-73
2022/07/01 05:46:26;;;;;;;29.47;27.57;;;14.70;99.90;;;;;;4983554;28;20454;-71
2022/07/01 05:48:53;;;;;;;30.27;28.77;;;14.50;99.90;;;;;;4983771;28;20482;-73
2022/07/01 05:51:19;;;;;;;29.40;27.80;;;14.60;99.90;;;;;;4985274;28;20455;-73
2022/07/01 05:53:47;;;;;;;29.00;27.50;;;14.70;99.90;;;;;;4983234;28;20450;-73
2022/07/01 05:56:15;;;;;;;30.30;28.60;;;14.80;99.90;;;;;;4985450;28;20451;-73
2022/07/01 05:58:42;;;;;;;32.00;30.17;;;14.80;99.90;;;;;;4982926;28;20530;-72
2022/07/01 06:01:09;;;;;;;30.87;29.17;;;14.80;99.90;;;;;;4983895;28;20438;-72
2022/07/01 06:03:36;;;;;;;31.23;29.53;;;14.80;99.90;;;;;;4984256;28;20450;-73
2022/07/01 06:06:02;;;;;;;31.43;29.87;;;14.90;99.90;;;;;;4982594;28;20447;-73
2022/07/01 06:08:29;;;;;;;30.23;28.53;;;14.90;99.90;;;;;;4982520;28;21016;-72
2022/07/01 06:10:56;;;;;;;30.70;29.00;;;14.90;99.90;;;;;;4982993;28;20988;-73
2022/07/01 06:13:24;;;;;;;31.37;29.57;;;14.90;99.90;;;;;;4982893;28;20456;-75
2022/07/01 06:15:51;;;;;;;30.93;29.00;;;14.80;99.90;;;;;;4985349;28;20471;-73
2022/07/01 06:18:18;;;;;;;30.70;29.00;;;14.80;99.90;;;;;;4983044;28;20450;-72
2022/07/01 06:20:45;;;;;;;30.13;28.53;;;14.80;99.90;;;;;;4982245;28;20443;-74
2022/07/01 06:23:11;;;;;;;30.40;28.80;;;14.90;99.90;;;;;;4983476;28;20959;-74
2022/07/01 06:25:38;;;;;;;29.57;28.07;;;14.80;99.90;;;;;;4983718;28;20452;-72
2022/07/01 06:28:05;;;;;;;30.43;28.90;;;14.80;99.90;;;;;;4982095;28;20436;-74
2022/07/01 06:30:33;;;;;;;29.40;28.00;;;14.90;99.90;;;;;;4983328;28;20435;-73
2022/07/01 06:33:00;;;;;;;29.60;28.10;;;14.90;99.90;;;;;;4984474;28;20447;-73
2022/07/01 06:35:26;;;;;;;29.93;28.47;;;15.00;99.90;;;;;;4981980;28;20452;-73
2022/07/01 06:37:53;;;;;;;31.27;29.47;;;15.10;99.90;;;;;;4982280;28;20501;-73
2022/07/01 06:40:20;;;;;;;30.33;28.73;;;15.20;99.90;;;;;;4983898;28;20475;-72
2022/07/01 06:42:47;;;;;;;30.70;29.20;;;15.40;99.90;;;;;;4982228;28;20456;-72
2022/07/01 06:45:13;;;;;;;30.63;29.03;;;15.20;99.90;;;;;;4982721;28;20451;-72
2022/07/01 06:47:41;;;;;;;30.90;29.10;;;15.20;99.90;;;;;;4984120;28;20451;-73
2022/07/01 06:50:09;;;;;;;31.67;30.07;;;15.30;99.90;;;;;;4984863;28;20497;-72
2022/07/01 06:52:35;;;;;;;29.60;28.10;;;15.40;99.90;;;;;;4993198;28;20825;-72
2022/07/01 06:55:02;;;;;;;32.23;30.63;;;15.40;99.90;;;;;;4993750;28;20862;-70
2022/07/01 06:57:47;;;;;;;31.67;30.07;;;15.30;99.90;;;;;;4993861;28;20493;-69
2022/07/01 07:00:20;;;;;;;31.60;30.00;;;15.30;99.90;;;;;;4991321;28;20509;-69
2022/07/01 07:02:48;;;;;;;32.47;30.57;;;15.30;99.90;;;;;;4991366;28;20443;-69
2022/07/01 07:05:14;;;;;;;31.73;30.03;;;15.10;99.90;;;;;;4992730;28;20450;-69
2022/07/01 07:07:41;;;;;;;31.60;30.00;;;15.20;99.90;;;;;;4992920;28;20453;-70
2022/07/01 07:10:09;;;;;;;29.87;28.17;;;15.30;99.90;;;;;;4992824;28;20491;-69
2022/07/01 07:12:35;;;;;;;30.40;28.90;;;15.30;99.90;;;;;;4993002;28;20458;-69
2022/07/01 07:15:02;;;;;;;30.30;28.60;;;15.40;99.90;;;;;;4993219;28;20455;-69
2022/07/01 07:17:29;;;;;;;30.80;29.23;;;15.40;99.90;;;;;;4992815;28;20474;-69
2022/07/01 07:19:57;;;;;;;30.77;28.93;;;15.40;99.90;;;;;;4992710;28;20882;-70
2022/07/01 07:22:24;;;;;;;29.00;27.50;;;15.40;99.90;;;;;;4992823;28;20470;-69
2022/07/01 07:24:51;;;;;;;29.73;28.03;;;15.50;99.90;;;;;;4992983;28;20450;-70
2022/07/01 07:27:17;;;;;;;32.27;30.47;;;15.60;99.90;;;;;;4992607;28;20940;-68
2022/07/01 07:29:44;;;;;;;32.00;30.30;;;15.70;99.90;;;;;;4992773;28;20482;-70
2022/07/01 07:32:11;;;;;;;30.90;29.30;;;15.90;99.90;;;;;;4992624;28;20481;-70
2022/07/01 07:34:37;;;;;;;32.83;31.03;;;16.00;99.90;;;;;;4992611;28;20455;-69
2022/07/01 07:37:06;;;;;;;33.07;31.07;;;15.80;99.90;;;;;;4989403;28;20458;-69
2022/07/01 07:39:33;;;;;;;32.07;30.40;;;15.80;99.90;;;;;;4992532;28;20510;-70
2022/07/01 07:41:59;;;;;;;32.20;30.50;;;15.80;99.90;;;;;;4992639;28;20458;-69
2022/07/01 07:44:26;;;;;;;32.63;30.93;;;15.60;99.90;;;;;;4992746;28;20454;-70
2022/07/01 07:46:53;;;;;;;33.63;31.73;;;15.70;99.90;;;;;;4992418;28;20481;-71
2022/07/01 07:49:20;;;;;;;31.87;30.17;;;15.80;99.90;;;;;;4992630;28;20489;-70
2022/07/01 07:51:46;;;;;;;32.20;30.40;;;15.90;99.90;;;;;;4992830;28;20510;-71
2022/07/01 07:54:14;;;;;;;33.00;31.10;;;15.90;99.90;;;;;;4992750;28;20459;-71
2022/07/01 07:56:41;;;;;;;33.27;31.47;;;15.70;99.90;;;;;;4992216;28;20494;-71
2022/07/01 07:59:08;;;;;;;33.20;31.40;;;15.70;99.90;;;;;;4992445;28;20967;-70
2022/07/01 08:01:34;;;;;;;32.60;31.00;;;15.60;99.90;;;;;;4992543;28;20447;-69
2022/07/01 08:04:01;;;;;;;33.00;31.40;;;15.60;99.90;;;;;;4991405;28;20850;-70
2022/07/01 08:06:29;;;;;;;33.77;31.97;;;15.50;99.90;;;;;;4985243;28;20468;-70
2022/07/01 08:08:57;;;;;;;32.60;31.00;;;15.60;99.90;;;;;;4989537;28;20521;-71
2022/07/01 08:11:25;;;;;;;31.20;29.70;;;15.60;99.90;;;;;;4972694;28;20453;-70
2022/07/01 08:13:52;;;;;;;32.40;30.70;;;15.60;99.90;;;;;;4977789;28;20505;-71
2022/07/01 08:16:19;;;;;;;32.60;31.00;;;15.70;99.90;;;;;;4991942;28;20517;-69
2022/07/01 08:18:45;;;;;;;33.70;31.90;;;15.80;99.90;;;;;;4991637;28;20555;-69
2022/07/01 08:21:14;;;;;;;34.40;32.60;;;15.60;99.90;;;;;;4991755;28;20455;-69
2022/07/01 08:23:41;;;;;;;31.20;29.60;;;15.50;99.90;;;;;;4972680;28;20490;-72
2022/07/01 08:26:07;;;;;;;31.37;29.57;;;15.40;99.90;;;;;;4972363;28;20988;-70
2022/07/01 08:28:35;;;;;;;31.90;30.20;;;15.70;99.90;;;;;;4972471;28;20444;-70
2022/07/01 08:31:02;;;;;;;32.00;30.40;;;15.90;99.90;;;;;;4972221;28;20491;-70
2022/07/01 08:33:29;;;;;;;34.30;32.37;;;16.00;99.90;;;;;;4972039;28;20456;-69
2022/07/01 08:35:55;;;;;;;33.03;31.43;;;16.20;99.90;;;;;;4972100;28;20502;-69
2022/07/01 08:38:22;;;;;;;32.60;31.00;;;16.20;99.90;;;;;;4971388;28;20885;-68
2022/07/01 08:40:49;;;;;;;32.90;31.30;;;16.30;99.90;;;;;;4987119;28;20493;-70
2022/07/01 08:43:16;;;;;;;32.37;30.67;;;16.20;99.90;;;;;;4990734;28;20524;-68
2022/07/01 08:45:44;;;;;;;31.30;29.70;;;16.10;99.90;;;;;;4991343;28;20501;-69
2022/07/01 08:48:22;;;;;;;31.73;30.13;;;16.10;99.90;;;;;;4991293;28;20454;-69
2022/07/01 08:50:49;;;;;;;31.60;30.10;;;16.00;99.90;;;;;;4991602;28;21000;-70
2022/07/01 08:53:16;;;;;;;32.40;30.40;;;16.00;99.90;;;;;;4991352;28;20446;-70
2022/07/01 08:58:28;;;;;;;32.80;31.00;;;15.90;99.90;;;;;;4991550;28;20808;-70
2022/07/01 09:01:13;;;;;;;31.50;29.80;;;15.90;99.90;;;;;;4991451;28;20960;-71
2022/07/01 09:03:40;;;;;;;31.30;29.60;;;15.90;99.90;;;;;;4991086;28;20447;-70
2022/07/01 09:06:13;;;;;;;33.00;31.10;;;16.00;99.90;;;;;;4991032;28;20447;-72
2022/07/01 09:08:39;;;;;;;32.53;30.73;;;16.20;99.90;;;;;;4991105;28;20513;-71
2022/07/01 09:11:13;;;;;;;32.63;30.87;;;16.20;99.90;;;;;;4990835;28;20483;-70
2022/07/01 09:13:40;;;;;;;33.57;31.77;;;16.20;99.90;;;;;;4985212;28;20448;-71
2022/07/01 09:16:14;;;;;;;33.27;31.47;;;16.20;99.90;;;;;;4973864;28;20463;-70
2022/07/01 09:18:41;;;;;;;33.37;31.33;;;16.20;99.90;;;;;;4975618;28;20646;-70
2022/07/01 09:21:13;;;;;;;34.30;32.23;;;16.10;99.90;;;;;;4975166;28;20979;-71
2022/07/01 09:23:40;;;;;;;32.50;30.90;;;16.10;99.90;;;;;;4975111;28;20506;-71
2022/07/01 09:26:06;;;;;;;31.90;30.40;;;15.90;99.90;;;;;;4975437;28;20843;-71
2022/07/01 09:28:33;;;;;;;33.00;31.20;;;15.80;99.90;;;;;;4975494;28;20502;-71
2022/07/01 09:31:00;;;;;;;33.07;31.27;;;15.70;99.90;;;;;;4975517;28;20495;-72
2022/07/01 09:33:29;;;;;;;32.40;30.80;;;15.80;99.90;;;;;;4975433;28;20834;-72
2022/07/01 09:35:59;;;;;;;32.77;31.10;;;15.70;99.90;;;;;;4975079;28;20648;-72
2022/07/01 09:38:26;;;;;;;31.47;29.87;;;15.70;99.90;;;;;;4974989;28;21051;-72
2022/07/01 09:40:54;;;;;;;29.90;28.30;;;15.70;99.90;;;;;;4975069;28;20487;-72
2022/07/01 09:43:23;;;;;;;31.83;30.23;;;15.60;99.90;;;;;;4975311;28;20464;-71
2022/07/01 09:45:57;;;;;;;31.57;29.97;;;15.50;99.90;;;;;;4975306;28;20498;-71
2022/07/01 09:48:26;;;;;;;32.93;31.53;;;15.50;99.90;;;;;;4975325;28;20463;-72
2022/07/01 09:50:54;;;;;;;33.03;31.13;;;15.30;99.90;;;;;;4975064;28;20996;-71
2022/07/01 09:53:21;;;;;;;31.60;30.10;;;15.20;99.90;;;;;;4974959;28;20521;-71
2022/07/01 09:55:48;;;;;;;31.13;29.73;;;15.20;99.90;;;;;;4975482;28;20466;-71
2022/07/01 09:58:15;;;;;;;31.33;29.93;;;15.20;99.90;;;;;;4974890;28;20953;-69
2022/07/01 10:00:43;;;;;;;32.03;30.53;;;15.30;99.90;;;;;;4975380;28;20534;-69
2022/07/01 10:03:10;;;;;;;30.40;29.00;;;15.30;99.90;;;;;;4975116;28;20452;-70
2022/07/01 10:05:46;;;;;;;30.00;28.30;;;15.20;99.90;;;;;;4974666;28;20534;-69
2022/07/01 10:08:40;;;;;;;31.90;30.40;;;15.10;99.90;;;;;;4975286;28;20871;-69
2022/07/01 10:11:35;;;;;;;29.47;28.10;;;15.20;99.90;;;;;;4974999;28;20487;-68
2022/07/01 10:14:04;;;;;;;28.63;27.33;;;15.20;99.90;;;;;;4983665;28;20493;-69
2022/07/01 10:16:32;;;;;;;28.57;27.30;;;15.30;99.90;;;;;;4983561;28;20443;-69
2022/07/01 10:18:59;;;;;;;28.90;27.60;;;15.40;99.90;;;;;;4983908;28;20455;-68
2022/07/01 10:21:28;;;;;;;29.00;27.60;;;15.60;99.90;;;;;;4982287;28;20514;-68
2022/07/01 10:24:12;;;;;;;27.97;26.67;;;15.70;99.90;;;;;;4982927;28;20534;-68
2022/07/01 10:26:39;;;;;;;29.10;27.70;;;15.90;99.90;;;;;;4982755;28;20455;-67
2022/07/01 10:29:07;;;;;;;28.37;26.90;;;15.90;99.90;;;;;;4982206;28;20448;-68
2022/07/01 10:31:37;;;;;;;27.40;26.10;;;16.20;99.90;;;;;;4983010;28;20478;-68
2022/07/01 10:34:05;;;;;;;26.43;24.90;;;16.30;99.90;;;;;;4984170;28;20986;-67
2022/07/01 10:36:34;;;;;;;24.50;23.40;;;16.50;99.90;;;;;;4985847;28;20852;-69
2022/07/01 10:39:14;;;;;;;21.30;20.40;;;16.80;99.90;;;;;;4993824;28;20873;-68
2022/07/01 10:41:54;;;;;;;20.37;19.47;;;17.10;99.90;;;;;;4993938;28;20446;-69
2022/07/01 10:44:23;;;;;;;19.63;18.73;;;17.60;99.90;;;;;;4993876;28;20473;-67
2022/07/01 10:46:56;;;;;;;19.03;18.10;;;18.30;99.90;;;;;;4993984;28;20505;-68
2022/07/01 10:50:00;;;;;;;17.57;16.87;;;18.90;99.90;;;;;;4993692;28;20443;-68
2022/07/01 10:52:28;;;;;;;15.13;14.40;;;19.40;99.90;;;;;;4993660;28;20450;-68
2022/07/01 10:54:57;;;;;;;14.40;13.70;;;19.70;99.90;;;;;;4993564;28;20505;-67
2022/07/01 10:57:35;;;;;;;14.13;13.53;;;20.60;99.90;;;;;;4993672;28;20914;-69
2022/07/01 11:00:31;;;;;;;12.50;12.00;;;21.20;99.90;;;;;;4993717;28;20461;-67
2022/07/01 11:03:10;;;;;;;14.33;13.60;;;21.70;99.90;;;;;;4993366;28;20634;-68
2022/07/01 11:06:10;;;;;;;13.13;12.60;;;22.40;99.90;;;;;;4993349;28;20450;-68
2022/07/01 11:08:37;;;;;;;13.17;12.47;;;23.30;99.90;;;;;;4986487;28;20462;-68
2022/07/01 11:11:05;;;;;;;14.97;13.97;;;23.20;99.90;;;;;;4992947;28;20509;-70
2022/07/01 11:13:33;;;;;;;14.37;13.67;;;22.30;99.90;;;;;;4988161;28;20503;-69
2022/07/01 11:16:01;;;;;;;13.57;12.97;;;21.70;99.90;;;;;;4973282;28;20459;-70
2022/07/01 11:18:28;;;;;;;14.47;13.87;;;21.60;99.90;;;;;;4973336;28;20535;-70
2022/07/01 11:21:04;;;;;;;13.80;13.00;;;21.50;99.90;;;;;;4973353;28;20476;-69
2022/07/01 11:23:31;;;;;;;14.60;13.90;;;21.20;99.90;;;;;;4973371;28;20846;-70
2022/07/01 11:25:58;;;;;;;14.53;13.87;;;20.80;99.90;;;;;;4973264;28;20448;-69
2022/07/01 11:28:26;;;;;;;14.00;13.40;;;20.90;99.90;;;;;;4973013;28;20581;-69
2022/07/01 11:30:59;;;;;;;13.70;13.20;;;20.90;99.90;;;;;;4972897;28;20909;-69
2022/07/01 11:33:26;;;;;;;13.87;13.27;;;20.70;99.90;;;;;;4972947;28;20459;-69
2022/07/01 11:41:33;;;;;;;13.67;13.00;;;20.60;99.90;;;;;;4965780;28;20510;-69
2022/07/01 11:44:05;;;;;;;14.43;13.83;;;20.30;99.90;;;;;;4972865;28;20460;-70
2022/07/01 11:46:31;;;;;;;13.97;13.33;;;20.00;99.90;;;;;;4972735;28;20937;-70
2022/07/01 11:48:58;;;;;;;13.47;12.97;;;19.60;99.90;;;;;;4972502;28;20451;-70
2022/07/01 11:51:26;;;;;;;14.30;13.60;;;19.30;99.90;;;;;;4972377;28;20496;-70
2022/07/01 11:53:55;;;;;;;14.50;13.90;;;19.20;99.90;;;;;;4972482;28;21022;-70
2022/07/01 11:56:29;;;;;;;14.30;13.57;;;19.30;99.90;;;;;;4972840;28;20538;-70
2022/07/01 11:58:57;;;;;;;13.60;13.10;;;19.70;99.90;;;;;;4972584;28;20880;-70
2022/07/01 12:01:28;;;;;;;14.93;14.23;;;20.00;99.90;;;;;;4972691;28;20458;-70
2022/07/01 12:03:56;;;;;;;14.27;13.57;;;20.70;99.90;;;;;;4972536;28;20454;-70
2022/07/01 12:06:24;;;;;;;14.67;13.77;;;20.40;99.90;;;;;;4972757;28;20463;-70
2022/07/01 12:08:51;;;;;;;14.80;14.00;;;20.20;99.90;;;;;;4972606;28;20944;-70
2022/07/01 12:11:19;;;;;;;13.20;12.50;;;20.00;99.90;;;;;;4972510;28;20491;-70
2022/07/01 12:13:47;;;;;;;13.63;13.00;;;20.50;99.90;;;;;;4978790;28;20547;-70
2022/07/01 12:16:14;;;;;;;14.03;13.40;;;21.30;99.90;;;;;;4990052;28;20465;-70
2022/07/01 12:18:53;;;;;;;13.70;13.10;;;22.00;99.90;;;;;;4992625;28;20485;-70
2022/07/01 12:21:20;;;;;;;13.67;13.10;;;22.90;99.90;;;;;;4991736;28;20527;-70
2022/07/01 12:24:05;;;;;;;13.63;13.07;;;23.00;99.90;;;;;;4986863;28;20443;-69
2022/07/01 12:26:32;;;;;;;14.30;13.70;;;22.70;99.90;;;;;;4981549;28;20455;-70
2022/07/01 12:28:59;;;;;;;13.57;12.97;;;22.70;99.90;;;;;;4979693;28;20843;-72
2022/07/01 12:31:25;;;;;;;12.60;12.10;;;23.10;99.90;;;;;;4980793;28;20489;-71
2022/07/01 12:33:53;;;;;;;13.80;13.30;;;23.70;99.40;;;;;;4981222;28;20463;-70
2022/07/01 12:36:20;;;;;;;15.00;14.20;;;24.00;97.60;;;;;;4979806;28;20452;-71
2022/07/01 12:38:47;;;;;;;13.93;13.43;;;24.60;97.80;;;;;;4980969;28;20880;-71
2022/07/01 12:41:30;;;;;;;14.40;13.90;;;24.90;96.10;;;;;;4981155;28;20479;-71
2022/07/01 12:43:56;;;;;;;14.67;14.07;;;24.70;95.90;;;;;;4979057;28;20855;-71
2022/07/01 12:46:30;;;;;;;13.57;12.97;;;23.40;97.70;;;;;;4980540;28;20462;-71